Weather at George Bush Intercontinental Houston Airport

Public forecast

Using degrees Fahrenheit for public forecast. Weather courtesy of forecast.io.

Current aviation weather report (METAR) for George Bush Intercontinental Houston Airport

Retrieved 2021/07/29 04:53 UTC (36 minutes ago):

KIAH 290453Z 19006KT 10SM CLR 29/23 A2999 RMK AO2 SLP154 T02940228

Aviation forecast (TAF) for George Bush Intercontinental Houston Airport

Retrieved 2021-07-29 00:22 UTC (5 hours ago):

TAF KIAH 282320Z 2900/3006 10006KT P6SM FEW050 SCT250 FM290500 VRB03KT P6SM FEW040 SCT250 FM291500 12006KT P6SM SCT050 SCT250 FM300400 VRB04KT P6SM SCT050